Time;durP1;ratioP1;P1;durP2;ratioP2;P2;SDS_P1;SDS_P2;PMS_P1;PMS_P2;Temp;Humidity;BMP_temperature;BMP_pressure;BME280_temperature;BME280_humidity;BME280_pressure;Samples;Min_cycle;Max_cycle;Signal;HPM_P1;HPM_P2
2021/10/30 11:05:21;;;;;;;3.15;2.70;;;16.40;72.70;;;;;;6040414;22;96009;-34
2021/10/30 11:08:29;;;;;;;3.70;2.65;;;16.40;72.70;;;;;;5027046;27;96776;-37
2021/10/30 11:11:25;;;;;;;3.83;3.42;;;16.40;72.70;;;;;;5010861;27;95915;-37
2021/10/30 11:14:02;;;;;;;4.20;3.13;;;16.40;72.70;;;;;;5011633;27;95973;-36
2021/10/30 11:16:41;;;;;;;3.22;2.63;;;16.40;72.60;;;;;;5009843;27;96300;-37
2021/10/30 11:19:37;;;;;;;4.70;3.35;;;16.40;72.60;;;;;;5016890;27;95877;-36
2021/10/30 11:22:15;;;;;;;3.30;2.65;;;16.40;72.60;;;;;;5015046;27;96229;-33
2021/10/30 11:25:01;;;;;;;3.15;2.70;;;16.40;72.60;;;;;;5016370;27;95617;-36
2021/10/30 11:27:54;;;;;;;3.78;2.70;;;16.40;72.60;;;;;;5008158;27;95931;-36
2021/10/30 11:30:56;;;;;;;3.30;2.60;;;16.40;72.50;;;;;;5012171;27;95900;-37
2021/10/30 11:33:32;;;;;;;4.15;2.85;;;16.40;72.60;;;;;;4999812;27;95810;-34
2021/10/30 11:36:17;;;;;;;4.03;3.17;;;16.40;72.60;;;;;;5015647;27;95850;-37
2021/10/30 11:38:55;;;;;;;;;;;16.40;72.70;;;;;;5009211;27;96644;-36
2021/10/30 11:41:45;;;;;;;3.17;2.85;;;16.40;72.60;;;;;;5018729;27;95515;-35
2021/10/30 11:44:18;;;;;;;;;;;16.40;72.60;;;;;;5019661;27;95687;-38
2021/10/30 11:46:55;;;;;;;3.03;2.15;;;16.30;72.50;;;;;;5023608;27;95757;-36
2021/10/30 11:49:33;;;;;;;4.95;3.35;;;16.40;72.50;;;;;;5019194;27;96608;-37
2021/10/30 11:52:11;;;;;;;3.33;2.70;;;16.40;72.60;;;;;;5024800;27;95870;-37
2021/10/30 11:54:43;;;;;;;2.88;2.65;;;16.30;72.50;;;;;;5021392;27;95342;-38
2021/10/30 11:57:19;;;;;;;3.60;2.63;;;16.40;72.60;;;;;;5019588;27;95766;-38
2021/10/30 12:00:08;;;;;;;3.00;2.47;;;16.40;72.50;;;;;;5025325;27;96139;-36
2021/10/30 12:03:03;;;;;;;4.53;3.10;;;16.30;72.50;;;;;;5018877;27;98241;-39
2021/10/30 12:14:28;;;;;;;5.90;4.22;;;16.50;73.30;;;;;;5001035;27;96379;-40
2021/10/30 12:17:35;;;;;;;7.05;4.20;;;16.70;73.40;;;;;;5014408;27;95960;-35
2021/10/30 12:20:11;;;;;;;5.85;4.28;;;16.80;73.40;;;;;;5003047;28;95763;-42
2021/10/30 12:22:46;;;;;;;7.45;4.88;;;16.90;73.30;;;;;;5001526;28;95917;-37
2021/10/30 12:25:30;;;;;;;5.85;4.18;;;16.90;73.10;;;;;;4999618;28;96623;-39
2021/10/30 12:28:01;;;;;;;7.60;4.90;;;17.00;73.00;;;;;;5001075;28;95709;-40
2021/10/30 12:30:38;;;;;;;5.57;4.97;;;17.10;72.80;;;;;;4998070;28;95860;-37
2021/10/30 12:33:17;;;;;;;7.13;3.92;;;17.10;72.70;;;;;;5002940;28;96070;-36
2021/10/30 12:35:54;;;;;;;6.07;4.28;;;17.10;72.40;;;;;;4999989;28;96952;-39
2021/10/30 12:38:30;;;;;;;6.28;4.57;;;17.10;72.40;;;;;;5002175;28;96716;-40
2021/10/30 12:41:13;;;;;;;5.25;4.60;;;17.10;72.20;;;;;;5002499;28;95826;-39
2021/10/30 12:43:51;;;;;;;7.53;4.50;;;17.10;72.10;;;;;;5004338;28;96023;-38
2021/10/30 12:46:25;;;;;;;6.97;4.60;;;17.10;71.80;;;;;;5004150;28;96603;-39
2021/10/30 12:48:57;;;;;;;5.90;4.28;;;17.10;71.90;;;;;;5004196;28;95993;-38
2021/10/30 12:51:28;;;;;;;7.72;5.90;;;17.10;71.90;;;;;;5002170;28;95815;-40
2021/10/30 12:54:06;;;;;;;10.07;5.60;;;17.20;71.90;;;;;;5003018;28;96817;-42
2021/10/30 12:56:45;;;;;;;6.53;5.47;;;17.20;71.70;;;;;;5001489;28;96066;-37
2021/10/30 12:59:23;;;;;;;5.93;5.07;;;17.20;71.50;;;;;;4999798;28;95985;-37
2021/10/30 13:01:57;;;;;;;6.35;5.22;;;17.20;71.40;;;;;;5002615;28;95832;-39
2021/10/30 13:04:40;;;;;;;6.28;5.28;;;17.20;71.30;;;;;;5001376;27;96966;-38
2021/10/30 13:07:20;;;;;;;5.85;4.93;;;17.20;71.20;;;;;;5003763;28;96529;-39
2021/10/30 13:09:59;;;;;;;13.65;6.68;;;17.20;71.10;;;;;;4999759;28;95915;-39
2021/10/30 13:12:30;;;;;;;6.65;5.88;;;17.10;71.00;;;;;;4998469;28;100025;-37
2021/10/30 13:18:01;;;;;;;7.32;5.93;;;17.20;71.00;;;;;;4999747;28;96441;-42
2021/10/30 13:20:33;;;;;;;7.40;5.93;;;17.10;70.90;;;;;;5000211;27;96100;-40
2021/10/30 13:23:05;;;;;;;7.32;5.57;;;17.10;70.80;;;;;;5000482;28;95756;-40
2021/10/30 13:25:37;;;;;;;6.65;5.40;;;17.10;70.80;;;;;;5002569;28;96022;-40
2021/10/30 13:28:08;;;;;;;7.30;5.90;;;17.10;70.80;;;;;;5001500;28;96406;-39
2021/10/30 13:31:04;;;;;;;8.27;5.60;;;17.10;70.70;;;;;;4997912;28;95628;-40
2021/10/30 13:33:39;;;;;;;8.82;6.05;;;17.10;70.60;;;;;;4998159;28;98055;-40
2021/10/30 13:36:12;;;;;;;9.80;6.60;;;17.10;70.60;;;;;;5000326;28;95643;-39
2021/10/30 13:38:45;;;;;;;6.50;5.07;;;17.10;70.60;;;;;;5000643;28;97245;-37
2021/10/30 13:41:17;;;;;;;7.15;6.10;;;17.00;70.50;;;;;;5000577;28;96141;-41
2021/10/30 13:43:49;;;;;;;7.45;6.05;;;17.00;70.40;;;;;;5001137;28;95815;-41
2021/10/30 13:46:22;;;;;;;7.57;6.07;;;17.00;71.00;;;;;;5001594;28;96049;-39
2021/10/30 13:49:01;;;;;;;8.68;6.30;;;17.00;70.30;;;;;;4998429;28;96535;-38
2021/10/30 13:51:34;;;;;;;8.05;6.15;;;17.00;70.40;;;;;;4999698;28;96116;-36
2021/10/30 13:54:06;;;;;;;9.95;5.80;;;17.00;70.30;;;;;;5001474;28;96040;-39
2021/10/30 13:56:42;;;;;;;10.35;7.65;;;16.90;70.30;;;;;;5002970;28;98580;-35
2021/10/30 13:59:37;;;;;;;10.55;7.93;;;16.90;70.30;;;;;;4999651;28;96942;-39
2021/10/30 14:02:13;;;;;;;8.77;6.72;;;16.90;70.20;;;;;;5000209;28;96504;-39
2021/10/30 14:04:47;;;;;;;8.73;6.80;;;16.90;70.20;;;;;;4992258;28;97574;-37
2021/10/30 14:07:24;;;;;;;9.55;7.70;;;16.90;70.20;;;;;;5001236;28;96722;-39
2021/10/30 14:09:57;;;;;;;9.70;7.72;;;16.90;70.30;;;;;;5000200;28;97372;-39
2021/10/30 14:12:30;;;;;;;9.57;7.68;;;16.90;70.30;;;;;;4999444;28;96470;-36
2021/10/30 14:15:02;;;;;;;12.80;8.55;;;16.80;70.10;;;;;;4988511;28;95985;-38
2021/10/30 14:17:33;;;;;;;11.18;8.70;;;16.90;70.10;;;;;;4998717;28;95844;-41
2021/10/30 14:20:05;;;;;;;12.05;8.32;;;16.90;70.10;;;;;;4998440;28;97684;-38
2021/10/30 14:22:43;;;;;;;10.30;7.90;;;16.80;70.10;;;;;;5000109;28;95803;-38
2021/10/30 14:25:17;;;;;;;9.85;7.93;;;16.80;70.10;;;;;;5001670;28;95285;-39
2021/10/30 14:27:48;;;;;;;10.25;8.30;;;16.80;70.10;;;;;;4999285;28;96695;-39
2021/10/30 14:30:22;;;;;;;12.40;8.55;;;16.80;70.00;;;;;;5000988;28;96752;-36
2021/10/30 14:32:55;;;;;;;10.52;7.38;;;16.70;70.00;;;;;;4997759;28;96056;-39
2021/10/30 14:35:27;;;;;;;11.00;8.40;;;16.70;70.00;;;;;;5000411;28;95808;-38
2021/10/30 14:38:03;;;;;;;9.52;7.90;;;16.70;70.00;;;;;;4999114;28;95927;-39
2021/10/30 14:40:34;;;;;;;12.82;8.45;;;16.70;70.00;;;;;;4999985;28;97661;-39
2021/10/30 14:43:11;;;;;;;12.10;9.07;;;16.70;70.00;;;;;;5000625;28;96297;-35
2021/10/30 14:45:43;;;;;;;14.90;9.15;;;16.70;70.00;;;;;;5015750;27;95891;-40
2021/10/30 14:48:18;;;;;;;11.18;8.00;;;16.70;70.00;;;;;;5001694;28;95758;-36
2021/10/30 14:50:54;;;;;;;12.38;8.73;;;16.70;70.00;;;;;;5001417;28;96611;-39
2021/10/30 14:53:25;;;;;;;9.93;8.15;;;16.70;69.90;;;;;;4998973;28;95773;-39
2021/10/30 14:55:58;;;;;;;10.52;7.72;;;16.60;70.00;;;;;;5000797;28;95774;-39
2021/10/30 14:58:32;;;;;;;10.73;8.93;;;16.60;70.00;;;;;;4999598;28;95961;-39
2021/10/30 15:01:05;;;;;;;11.93;8.80;;;16.60;69.90;;;;;;4999814;28;96539;-40
2021/10/30 15:03:39;;;;;;;11.98;8.50;;;16.60;70.00;;;;;;4999365;28;96675;-38
2021/10/30 15:06:13;;;;;;;11.98;8.32;;;16.60;69.90;;;;;;4999845;28;95716;-37
2021/10/30 15:08:48;;;;;;;11.50;8.65;;;16.60;69.90;;;;;;4999980;28;95675;-39
2021/10/30 15:11:21;;;;;;;11.57;8.23;;;16.60;69.90;;;;;;4999274;28;97009;-39
2021/10/30 15:13:54;;;;;;;11.13;8.15;;;16.50;69.80;;;;;;4989086;28;97123;-39
2021/10/30 15:16:27;;;;;;;11.75;8.32;;;16.50;69.90;;;;;;4995305;27;97657;-39
2021/10/30 15:19:02;;;;;;;12.20;8.40;;;16.50;69.90;;;;;;5000476;28;95933;-39
2021/10/30 15:21:34;;;;;;;9.40;7.35;;;16.50;69.90;;;;;;4998685;28;96258;-39
2021/10/30 15:24:05;;;;;;;13.55;8.48;;;16.50;69.90;;;;;;4998839;28;99281;-35
2021/10/30 15:26:36;;;;;;;12.80;9.43;;;16.50;69.80;;;;;;4997841;28;96081;-36
2021/10/30 15:29:07;;;;;;;11.50;8.48;;;16.50;69.90;;;;;;4999231;28;95911;-39
2021/10/30 15:31:40;;;;;;;11.40;8.55;;;16.40;69.70;;;;;;4998853;28;95865;-35
2021/10/30 15:34:14;;;;;;;11.40;8.73;;;16.40;69.80;;;;;;4997489;28;96140;-39
2021/10/30 15:36:48;;;;;;;11.98;8.45;;;16.40;69.80;;;;;;4999267;28;96088;-41
2021/10/30 15:39:22;;;;;;;12.32;8.43;;;16.40;69.80;;;;;;4999570;28;95946;-38
2021/10/30 15:41:53;;;;;;;11.63;8.50;;;16.40;69.90;;;;;;4999710;28;95975;-38
2021/10/30 15:44:24;;;;;;;12.07;9.00;;;16.40;69.90;;;;;;4998217;28;96309;-39
2021/10/30 15:46:55;;;;;;;9.90;7.38;;;16.30;69.80;;;;;;4998583;28;95790;-39
2021/10/30 15:49:30;;;;;;;11.63;8.43;;;16.40;69.80;;;;;;5000033;28;96349;-39
2021/10/30 15:52:05;;;;;;;10.93;7.63;;;16.30;69.70;;;;;;4995989;28;98547;-40
2021/10/30 15:54:37;;;;;;;11.30;8.52;;;16.30;69.70;;;;;;5003070;28;95873;-39
2021/10/30 15:57:09;;;;;;;11.88;8.63;;;16.30;69.80;;;;;;5001757;28;96108;-39
2021/10/30 15:59:42;;;;;;;11.55;8.00;;;16.30;69.70;;;;;;5002425;28;96082;-38
2021/10/30 16:02:17;;;;;;;10.13;8.30;;;16.20;69.70;;;;;;5001904;28;96400;-39
2021/10/30 16:04:52;;;;;;;10.60;6.93;;;16.20;69.80;;;;;;5008366;28;96606;-40
2021/10/30 16:07:23;;;;;;;10.07;8.15;;;16.20;69.70;;;;;;5007390;28;97002;-39
2021/10/30 16:09:55;;;;;;;10.93;7.78;;;16.20;70.00;;;;;;5003739;28;95671;-38
2021/10/30 16:12:27;;;;;;;10.73;8.35;;;16.20;70.20;;;;;;4997205;28;95963;-38
2021/10/30 16:15:00;;;;;;;10.55;8.07;;;16.10;70.20;;;;;;4988000;28;95868;-39
2021/10/30 16:17:31;;;;;;;9.90;7.43;;;16.10;70.30;;;;;;5002881;28;96623;-39
2021/10/30 16:20:07;;;;;;;11.27;8.10;;;16.10;70.50;;;;;;5005811;28;95857;-41
2021/10/30 16:22:39;;;;;;;10.50;7.95;;;16.00;70.60;;;;;;5004440;28;96899;-38
2021/10/30 16:25:12;;;;;;;10.15;7.68;;;16.00;70.70;;;;;;5007558;28;95864;-39
2021/10/30 16:27:42;;;;;;;11.15;9.15;;;16.00;70.80;;;;;;4998286;28;95799;-36
2021/10/30 16:30:13;;;;;;;9.27;6.95;;;16.00;70.80;;;;;;5003440;28;95867;-43
2021/10/30 16:32:44;;;;;;;10.07;7.18;;;16.00;70.90;;;;;;5004996;28;96193;-37
2021/10/30 16:35:15;;;;;;;10.90;8.10;;;15.90;71.50;;;;;;5009506;28;95838;-36
2021/10/30 16:37:46;;;;;;;11.82;8.13;;;15.90;71.10;;;;;;5011612;28;95639;-37
2021/10/30 16:40:16;;;;;;;14.45;7.53;;;15.90;71.10;;;;;;5009086;28;96801;-39
2021/10/30 16:42:47;;;;;;;10.20;7.95;;;15.80;71.10;;;;;;5001883;28;96592;-38
2021/10/30 16:45:17;;;;;;;8.73;7.28;;;15.80;71.20;;;;;;5009056;28;95544;-37
2021/10/30 16:47:46;;;;;;;10.38;7.82;;;15.80;71.30;;;;;;5010833;28;95934;-38
2021/10/30 16:50:19;;;;;;;10.97;6.93;;;15.70;71.30;;;;;;5007737;28;95820;-38
2021/10/30 16:52:49;;;;;;;;;;;15.70;71.50;;;;;;5009546;28;96095;-39
2021/10/30 16:55:19;;;;;;;14.88;8.40;;;15.70;71.40;;;;;;5010939;28;95767;-39
2021/10/30 16:57:50;;;;;;;9.70;7.15;;;15.70;71.40;;;;;;5010729;28;95507;-39
2021/10/30 17:00:21;;;;;;;10.63;6.55;;;15.70;71.60;;;;;;5013407;28;96180;-39
2021/10/30 17:02:52;;;;;;;10.23;7.53;;;15.60;71.50;;;;;;5009017;28;95842;-39
2021/10/30 17:05:24;;;;;;;10.02;7.30;;;15.60;71.60;;;;;;5008451;28;96134;-39
2021/10/30 17:07:58;;;;;;;9.65;7.95;;;15.60;71.70;;;;;;5008862;28;95814;-38
2021/10/30 17:10:29;;;;;;;11.48;8.30;;;15.50;71.70;;;;;;5009451;28;95731;-36
2021/10/30 17:13:01;;;;;;;9.45;7.10;;;15.50;72.40;;;;;;5001856;28;97850;-38
2021/10/30 17:15:32;;;;;;;;;;;15.50;71.80;;;;;;4998097;28;95809;-37
2021/10/30 17:18:03;;;;;;;12.23;8.03;;;15.50;71.80;;;;;;5011488;28;95308;-39
2021/10/30 17:20:34;;;;;;;9.40;8.07;;;15.50;71.90;;;;;;5011851;28;96637;-37
2021/10/30 17:23:05;;;;;;;10.05;7.57;;;15.40;71.80;;;;;;5006133;28;95930;-38
2021/10/30 17:25:35;;;;;;;9.40;7.28;;;15.40;71.90;;;;;;5007003;28;95898;-38
2021/10/30 17:28:05;;;;;;;10.02;7.45;;;15.40;71.90;;;;;;5008528;28;95723;-37
2021/10/30 17:30:35;;;;;;;10.38;8.32;;;15.40;72.00;;;;;;5004282;28;95572;-36
2021/10/30 17:33:07;;;;;;;8.52;7.30;;;15.40;72.00;;;;;;5002050;28;96384;-36
2021/10/30 17:35:42;;;;;;;11.75;7.95;;;15.30;72.00;;;;;;5002577;28;95850;-39
2021/10/30 17:38:14;;;;;;;9.02;7.43;;;15.30;72.10;;;;;;5009087;28;95276;-38
2021/10/30 17:40:45;;;;;;;9.57;6.95;;;15.30;72.10;;;;;;5007765;28;95921;-38
2021/10/30 17:43:16;;;;;;;10.18;7.32;;;15.30;72.10;;;;;;4990504;28;96564;-36
2021/10/30 17:45:47;;;;;;;8.20;7.20;;;15.30;72.10;;;;;;5009546;28;95599;-39
2021/10/30 17:48:19;;;;;;;9.07;7.18;;;15.20;72.20;;;;;;5038850;27;95829;-40
2021/10/30 17:50:50;;;;;;;9.13;6.65;;;15.20;72.20;;;;;;5008591;28;99081;-36
2021/10/30 17:53:21;;;;;;;11.65;7.65;;;15.20;72.20;;;;;;5005906;28;96407;-38
2021/10/30 17:56:15;;;;;;;9.40;7.25;;;15.20;72.20;;;;;;5008321;28;95397;-38
2021/10/30 17:58:47;;;;;;;9.23;6.65;;;15.20;72.30;;;;;;5007178;28;95902;-39
2021/10/30 18:01:21;;;;;;;11.13;7.20;;;15.10;72.30;;;;;;5004667;28;95824;-39
2021/10/30 18:03:55;;;;;;;8.10;6.88;;;15.10;72.30;;;;;;5008114;28;95945;-38
2021/10/30 18:06:26;;;;;;;8.68;6.80;;;15.10;72.30;;;;;;5008832;28;95838;-40
2021/10/30 18:08:56;;;;;;;;;;;15.10;72.30;;;;;;5009804;28;99269;-38
2021/10/30 18:11:26;;;;;;;10.48;7.50;;;15.10;72.40;;;;;;5009492;28;95617;-38
2021/10/30 18:13:56;;;;;;;9.15;6.85;;;15.00;72.30;;;;;;4997319;28;96101;-37
2021/10/30 18:16:27;;;;;;;9.48;7.57;;;15.10;72.40;;;;;;5001242;28;96039;-39
2021/10/30 18:18:58;;;;;;;9.48;6.85;;;15.00;72.30;;;;;;5039756;27;95474;-39
2021/10/30 18:21:29;;;;;;;10.07;7.72;;;15.00;72.40;;;;;;5008199;28;95838;-37
2021/10/30 18:24:02;;;;;;;7.90;6.17;;;15.00;72.40;;;;;;5007759;28;95871;-39
2021/10/30 18:26:32;;;;;;;10.52;7.85;;;15.00;72.40;;;;;;5006732;28;95817;-39
2021/10/30 18:29:03;;;;;;;8.23;7.10;;;15.00;72.50;;;;;;5008194;28;95889;-40
2021/10/30 18:31:33;;;;;;;9.45;7.63;;;15.00;72.50;;;;;;5005811;28;98347;-40
2021/10/30 18:34:05;;;;;;;8.77;6.55;;;14.90;72.40;;;;;;5004489;28;96377;-40
2021/10/30 18:36:37;;;;;;;9.40;6.97;;;14.90;72.50;;;;;;5007386;28;95846;-40
2021/10/30 18:39:08;;;;;;;10.25;7.32;;;14.90;72.50;;;;;;5008632;28;95680;-39
2021/10/30 18:41:39;;;;;;;9.43;6.27;;;14.90;72.50;;;;;;5007760;28;95882;-39
2021/10/30 18:44:09;;;;;;;7.95;6.55;;;14.90;72.60;;;;;;5004695;28;96184;-39
2021/10/30 18:46:41;;;;;;;8.48;6.68;;;14.90;72.50;;;;;;5007126;28;95425;-39
2021/10/30 18:49:13;;;;;;;9.45;7.47;;;14.90;72.60;;;;;;5007468;28;95370;-38
2021/10/30 18:51:45;;;;;;;9.18;6.90;;;14.90;72.60;;;;;;5006103;28;95780;-40
2021/10/30 18:54:16;;;;;;;7.82;6.65;;;14.90;72.60;;;;;;5008751;28;95862;-40
2021/10/30 18:56:49;;;;;;;9.77;7.20;;;14.80;72.60;;;;;;5009430;28;95900;-40
2021/10/30 18:59:21;;;;;;;7.50;6.18;;;14.80;72.60;;;;;;5007800;28;96095;-37
2021/10/30 19:01:52;;;;;;;;;;;14.80;72.50;;;;;;5006756;28;95871;-36
2021/10/30 19:04:24;;;;;;;8.13;5.95;;;14.80;72.60;;;;;;5007242;28;96830;-40
2021/10/30 19:06:56;;;;;;;7.57;6.18;;;14.80;72.60;;;;;;5007540;28;96004;-39
2021/10/30 19:09:27;;;;;;;9.55;6.93;;;14.80;72.70;;;;;;5008486;28;95754;-39
2021/10/30 19:11:57;;;;;;;9.60;7.38;;;14.80;72.70;;;;;;5009296;28;98256;-39
2021/10/30 19:14:27;;;;;;;9.05;6.63;;;14.70;72.70;;;;;;4997334;28;97854;-38
2021/10/30 19:16:56;;;;;;;8.25;6.22;;;14.70;72.70;;;;;;5005730;28;96964;-39
2021/10/30 19:19:28;;;;;;;8.63;6.47;;;14.70;72.70;;;;;;5006729;28;95740;-40
2021/10/30 19:21:58;;;;;;;9.38;6.88;;;14.70;72.70;;;;;;5006072;28;95747;-38
2021/10/30 19:24:32;;;;;;;8.68;6.63;;;14.70;72.80;;;;;;5006968;28;96984;-39
2021/10/30 19:27:03;;;;;;;8.57;6.40;;;14.70;72.80;;;;;;5003018;28;95805;-37
2021/10/30 19:29:35;;;;;;;8.90;6.50;;;14.70;72.80;;;;;;5005732;28;98111;-40
2021/10/30 19:32:05;;;;;;;8.88;6.35;;;14.70;72.90;;;;;;5009591;28;95606;-38
2021/10/30 19:34:36;;;;;;;8.65;6.40;;;14.70;72.80;;;;;;5009200;28;96261;-39
2021/10/30 19:37:08;;;;;;;;;;;14.60;72.80;;;;;;5009945;28;96008;-38
2021/10/30 19:39:38;;;;;;;8.80;7.10;;;14.70;72.90;;;;;;5010995;28;95749;-39
2021/10/30 19:42:08;;;;;;;8.00;6.97;;;14.70;72.90;;;;;;5002760;28;95771;-40
2021/10/30 19:44:39;;;;;;;10.00;7.30;;;14.60;73.10;;;;;;5010600;28;96171;-38
2021/10/30 19:47:11;;;;;;;8.20;6.28;;;14.60;72.90;;;;;;5011372;28;95673;-41
2021/10/30 19:49:42;;;;;;;9.10;6.63;;;14.60;72.90;;;;;;5011995;28;96235;-40
2021/10/30 19:52:12;;;;;;;7.20;5.78;;;14.60;72.90;;;;;;5009160;28;95804;-39
2021/10/30 19:54:43;;;;;;;8.65;6.35;;;14.60;72.90;;;;;;5009450;28;95285;-38
2021/10/30 19:57:13;;;;;;;9.20;7.10;;;14.60;73.00;;;;;;5009360;28;96538;-40
2021/10/30 19:59:46;;;;;;;8.95;7.80;;;14.60;73.00;;;;;;5009711;28;95788;-40
2021/10/30 20:02:18;;;;;;;8.77;6.80;;;14.60;73.10;;;;;;5041814;27;95652;-40
2021/10/30 20:04:50;;;;;;;8.70;7.03;;;14.60;73.10;;;;;;5010100;27;96456;-39
2021/10/30 20:07:20;;;;;;;8.55;6.90;;;14.60;73.00;;;;;;5010247;28;96045;-39
2021/10/30 20:09:50;;;;;;;8.18;6.20;;;14.50;73.00;;;;;;5009680;28;96044;-39
2021/10/30 20:12:23;;;;;;;10.02;7.25;;;14.60;73.10;;;;;;5009434;28;95779;-39
2021/10/30 20:14:55;;;;;;;9.55;7.43;;;14.60;73.10;;;;;;4998421;28;96057;-40
2021/10/30 20:17:25;;;;;;;7.53;6.72;;;14.50;73.10;;;;;;5008384;28;96024;-40
2021/10/30 20:19:55;;;;;;;11.85;8.40;;;14.50;73.10;;;;;;5009223;28;95917;-39
2021/10/30 20:22:26;;;;;;;7.28;6.35;;;14.50;73.10;;;;;;5009403;28;95584;-40
2021/10/30 20:24:57;;;;;;;7.90;6.38;;;14.50;73.20;;;;;;5008155;28;95949;-38
2021/10/30 20:27:26;;;;;;;8.15;6.18;;;14.50;73.10;;;;;;5007372;28;95731;-39
2021/10/30 20:29:56;;;;;;;6.47;5.82;;;14.50;73.20;;;;;;5008820;28;96023;-42
2021/10/30 20:32:28;;;;;;;9.13;7.03;;;14.50;73.20;;;;;;5011083;28;95574;-40
2021/10/30 20:34:58;;;;;;;6.77;5.37;;;14.50;73.30;;;;;;5006730;28;96181;-40
2021/10/30 20:37:30;;;;;;;9.43;6.32;;;14.50;73.20;;;;;;5005264;28;95572;-40
2021/10/30 20:40:01;;;;;;;;;;;14.50;73.30;;;;;;5010240;28;95776;-38
2021/10/30 20:42:31;;;;;;;6.78;5.22;;;14.50;73.20;;;;;;5010132;28;95675;-39
2021/10/30 20:45:01;;;;;;;6.95;6.03;;;14.50;73.20;;;;;;5006482;28;98102;-38
2021/10/30 20:47:31;;;;;;;7.07;5.50;;;14.40;73.20;;;;;;5010359;28;95708;-39
2021/10/30 20:50:03;;;;;;;7.00;6.07;;;14.50;73.30;;;;;;5010243;28;95253;-40
2021/10/30 20:52:34;;;;;;;7.28;5.03;;;14.50;73.40;;;;;;5005848;28;95735;-37
2021/10/30 20:55:07;;;;;;;7.03;5.78;;;14.40;73.30;;;;;;5002314;28;95991;-39
2021/10/30 20:57:37;;;;;;;6.15;5.07;;;14.40;73.30;;;;;;5002136;28;95810;-39
2021/10/30 21:00:10;;;;;;;7.65;6.20;;;14.50;73.40;;;;;;5005981;28;95785;-39
2021/10/30 21:02:42;;;;;;;7.70;5.25;;;14.50;73.40;;;;;;5007708;28;95747;-41
2021/10/30 21:05:14;;;;;;;6.80;5.78;;;14.50;73.50;;;;;;5004362;28;96366;-39
2021/10/30 21:07:50;;;;;;;5.88;4.95;;;14.50;73.40;;;;;;5011646;28;95706;-38
2021/10/30 21:10:21;;;;;;;6.53;5.60;;;14.40;73.40;;;;;;5011246;28;95564;-38
2021/10/30 21:12:52;;;;;;;6.95;5.47;;;14.40;73.40;;;;;;5006770;28;96027;-38
2021/10/30 21:15:23;;;;;;;6.70;5.38;;;14.40;73.50;;;;;;4998062;28;97299;-38
2021/10/30 21:17:55;;;;;;;6.05;5.18;;;14.40;73.50;;;;;;5007041;28;95521;-37
2021/10/30 21:20:25;;;;;;;6.07;5.10;;;14.40;73.50;;;;;;5009055;28;95845;-38
2021/10/30 21:22:55;;;;;;;5.47;4.63;;;14.40;73.50;;;;;;5009246;28;95564;-39
2021/10/30 21:25:25;;;;;;;5.15;4.28;;;14.40;73.40;;;;;;5009275;28;98555;-38
2021/10/30 21:27:55;;;;;;;6.60;5.30;;;14.40;73.50;;;;;;5008527;28;95906;-39
2021/10/30 21:30:25;;;;;;;5.82;4.57;;;14.40;73.50;;;;;;5005688;28;95785;-41
2021/10/30 21:32:58;;;;;;;6.25;4.85;;;14.40;73.50;;;;;;5008588;28;98082;-41
2021/10/30 21:35:28;;;;;;;;;;;14.40;73.50;;;;;;5011489;27;96773;-38
2021/10/30 21:38:03;;;;;;;6.70;4.85;;;14.50;73.90;;;;;;5009927;28;95913;-37
2021/10/30 21:40:33;;;;;;;5.57;4.55;;;14.50;74.90;;;;;;5008414;28;95977;-38
2021/10/30 21:43:04;;;;;;;6.18;4.68;;;14.60;74.50;;;;;;5009256;28;96634;-37
2021/10/30 21:45:35;;;;;;;5.70;4.43;;;14.70;74.30;;;;;;5007343;28;95941;-38
2021/10/30 21:48:06;;;;;;;4.45;3.95;;;14.70;74.40;;;;;;5009025;28;95646;-36
2021/10/30 21:50:39;;;;;;;4.57;4.13;;;14.70;74.50;;;;;;5039257;27;95995;-34
2021/10/30 21:53:10;;;;;;;3.53;3.20;;;14.70;73.60;;;;;;5007360;28;95318;-38
2021/10/30 21:55:41;;;;;;;4.15;3.47;;;14.80;74.80;;;;;;5008926;28;96414;-39
2021/10/30 21:58:11;;;;;;;4.00;3.05;;;14.80;75.40;;;;;;5008885;28;95902;-38
2021/10/30 22:00:56;;;;;;;3.30;2.80;;;14.90;74.90;;;;;;5006516;28;95662;-39
2021/10/30 22:03:30;;;;;;;3.28;2.92;;;15.00;75.00;;;;;;5005366;28;96412;-38
2021/10/30 22:06:02;;;;;;;3.97;2.92;;;15.10;75.30;;;;;;5006575;28;96022;-37
2021/10/30 22:08:33;;;;;;;4.32;2.83;;;15.20;75.50;;;;;;5004975;28;96030;-39
2021/10/30 22:11:04;;;;;;;2.80;2.50;;;15.30;75.50;;;;;;5001080;28;95848;-38
2021/10/30 22:13:35;;;;;;;3.30;2.65;;;15.40;75.50;;;;;;4997227;28;95827;-37
2021/10/30 22:16:06;;;;;;;3.45;2.53;;;15.50;75.40;;;;;;4996345;28;96311;-36
2021/10/30 22:18:36;;;;;;;;;;;15.60;75.30;;;;;;4999085;28;95729;-36
2021/10/30 22:21:07;;;;;;;2.92;2.17;;;15.60;75.10;;;;;;5009613;28;95571;-36
2021/10/30 22:23:39;;;;;;;;;;;15.60;75.00;;;;;;5007227;28;95995;-37
2021/10/30 22:26:09;;;;;;;3.92;2.40;;;15.60;74.90;;;;;;5007640;28;96527;-44
2021/10/30 22:28:39;;;;;;;3.25;2.63;;;15.60;74.90;;;;;;5004425;28;95919;-38
2021/10/30 22:31:11;;;;;;;2.40;2.20;;;15.60;75.50;;;;;;5007779;28;95274;-38
2021/10/30 22:33:43;;;;;;;4.22;2.75;;;15.60;75.50;;;;;;5005190;28;95787;-38
2021/10/30 22:36:13;;;;;;;3.63;2.08;;;15.60;74.90;;;;;;5005051;28;95958;-43
2021/10/30 22:38:44;;;;;;;3.97;2.70;;;15.70;74.90;;;;;;4996310;28;97197;-38
2021/10/30 22:41:13;;;;;;;2.60;2.40;;;15.70;74.80;;;;;;5004028;28;95769;-38
2021/10/30 22:43:45;;;;;;;2.75;2.55;;;15.70;74.80;;;;;;5007684;28;95906;-39
2021/10/30 22:46:15;;;;;;;4.70;2.08;;;15.70;74.70;;;;;;5006517;28;96921;-37
2021/10/30 22:48:47;;;;;;;2.55;2.35;;;15.70;74.70;;;;;;5008967;28;95771;-37
2021/10/30 22:51:19;;;;;;;3.38;2.67;;;15.70;74.70;;;;;;5007436;28;95770;-38
2021/10/30 22:53:54;;;;;;;2.83;2.63;;;15.70;74.60;;;;;;5005420;28;95301;-37
2021/10/30 22:56:25;;;;;;;4.80;2.40;;;15.70;74.60;;;;;;5006545;28;96163;-39
2021/10/30 22:58:59;;;;;;;3.08;2.08;;;15.70;74.60;;;;;;5006666;28;96430;-39
2021/10/30 23:01:35;;;;;;;3.33;1.85;;;15.80;74.50;;;;;;5008794;28;95360;-37
2021/10/30 23:04:05;;;;;;;2.40;2.20;;;15.80;74.50;;;;;;5007319;28;95663;-38
2021/10/30 23:06:36;;;;;;;4.57;2.67;;;15.80;74.40;;;;;;5006222;28;96573;-36
2021/10/30 23:09:14;;;;;;;2.80;2.40;;;15.80;74.40;;;;;;5008035;28;97375;-37
2021/10/30 23:11:44;;;;;;;2.22;2.03;;;15.80;74.40;;;;;;5001892;28;95650;-36
2021/10/30 23:14:14;;;;;;;2.40;2.20;;;15.80;74.30;;;;;;4992774;28;95917;-37
2021/10/30 23:16:45;;;;;;;4.20;2.40;;;15.80;74.30;;;;;;5001311;28;95925;-37
2021/10/30 23:19:16;;;;;;;2.95;2.15;;;15.80;74.30;;;;;;5003705;28;96614;-38
2021/10/30 23:21:48;;;;;;;4.53;1.60;;;15.80;74.20;;;;;;5005423;28;96011;-39
2021/10/30 23:24:19;;;;;;;;;;;15.90;74.20;;;;;;5005556;28;95457;-38
2021/10/30 23:26:51;;;;;;;2.40;1.83;;;15.90;74.10;;;;;;5006194;28;97092;-37
2021/10/30 23:29:22;;;;;;;2.40;2.10;;;15.90;74.10;;;;;;5006143;28;95874;-38
2021/10/30 23:31:52;;;;;;;5.40;1.73;;;15.90;74.10;;;;;;5005665;28;95670;-40
2021/10/30 23:34:23;;;;;;;;;;;15.90;74.60;;;;;;5007733;28;95577;-40
2021/10/30 23:36:54;;;;;;;3.70;1.90;;;16.00;74.10;;;;;;5009173;28;96073;-42
2021/10/30 23:39:25;;;;;;;3.57;2.10;;;16.00;74.10;;;;;;5006542;28;95876;-39
2021/10/30 23:41:55;;;;;;;3.05;1.88;;;16.00;74.00;;;;;;5003260;28;95855;-37
2021/10/30 23:44:25;;;;;;;3.38;2.17;;;16.00;74.00;;;;;;5000142;28;95819;-41
2021/10/30 23:46:55;;;;;;;2.10;1.70;;;16.00;73.90;;;;;;5001921;28;96453;-36
2021/10/30 23:49:25;;;;;;;2.70;1.92;;;16.00;73.90;;;;;;5005800;28;95805;-37
2021/10/30 23:51:56;;;;;;;2.30;1.80;;;16.00;73.80;;;;;;5006378;28;95804;-34
2021/10/30 23:54:28;;;;;;;1.80;1.70;;;16.10;73.80;;;;;;5000657;28;95792;-42
2021/10/30 23:57:02;;;;;;;2.65;2.13;;;16.10;73.80;;;;;;5006399;28;95920;-37
2021/10/30 23:59:33;;;;;;;2.28;2.05;;;16.10;73.80;;;;;;4996184;28;95851;-38
